Time;durP1;ratioP1;P1;durP2;ratioP2;P2;SDS_P1;SDS_P2;PMS_P1;PMS_P2;Temp;Humidity;BMP_temperature;BMP_pressure;BME280_temperature;BME280_humidity;BME280_pressure;Samples;Min_cycle;Max_cycle;Signal;HPM_P1;HPM_P2
2022/03/26 00:02:16;;;;;;;28.33;17.90;;;;;;;;;;4941931;28;20254;-72
2022/03/26 00:04:42;;;;;;;28.67;19.60;;;;;;;;;;4922851;29;20245;-72
2022/03/26 00:07:07;;;;;;;27.40;18.13;;;;;;;;;;4934200;29;20246;-72
2022/03/26 00:09:35;;;;;;;27.23;18.77;;;;;;;;;;4935197;29;20218;-72
2022/03/26 00:12:01;;;;;;;27.83;19.63;;;;;;;;;;4933058;29;20234;-72
2022/03/26 00:14:26;;;;;;;31.67;20.17;;;;;;;;;;4945259;28;20233;-72
2022/03/26 00:16:52;;;;;;;32.80;19.13;;;;;;;;;;4940988;29;20223;-73
2022/03/26 00:19:18;;;;;;;29.13;19.43;;;;;;;;;;4942392;29;20224;-72
2022/03/26 00:21:49;;;;;;;29.10;19.87;;;;;;;;;;4937463;29;20227;-72
2022/03/26 00:24:17;;;;;;;30.70;19.07;;;;;;;;;;4949224;28;20234;-73
2022/03/26 00:26:42;;;;;;;30.70;20.20;;;;;;;;;;4949311;29;20244;-72
2022/03/26 00:29:08;;;;;;;28.93;18.80;;;;;;;;;;4929742;29;20758;-72
2022/03/26 00:31:37;;;;;;;28.17;18.03;;;;;;;;;;4943478;28;20226;-72
2022/03/26 00:34:06;;;;;;;29.33;17.90;;;;;;;;;;4929534;29;20227;-74
2022/03/26 00:36:34;;;;;;;24.33;17.87;;;;;;;;;;4920125;29;20246;-72
2022/03/26 00:39:02;;;;;;;30.27;18.27;;;;;;;;;;4951573;29;20219;-76
2022/03/26 00:41:30;;;;;;;26.50;17.43;;;;;;;;;;4934823;28;20693;-72
2022/03/26 00:43:59;;;;;;;26.43;17.87;;;;;;;;;;4932813;29;20239;-72
2022/03/26 00:46:24;;;;;;;24.43;18.90;;;;;;;;;;4928687;29;20273;-71
2022/03/26 00:48:50;;;;;;;27.47;18.20;;;;;;;;;;4929042;29;20222;-73
2022/03/26 00:51:20;;;;;;;25.73;18.53;;;;;;;;;;4944050;29;20251;-72
2022/03/26 00:53:46;;;;;;;26.50;17.53;;;;;;;;;;4936153;29;20249;-72
2022/03/26 00:56:12;;;;;;;25.97;18.20;;;;;;;;;;4940276;29;20234;-72
2022/03/26 00:58:40;;;;;;;30.10;18.07;;;;;;;;;;4951060;29;20709;-72
2022/03/26 01:01:08;;;;;;;28.77;17.97;;;;;;;;;;4919575;29;20235;-72
2022/03/26 01:03:34;;;;;;;28.63;17.60;;;;;;;;;;4907979;29;20319;-72
2022/03/26 01:05:59;;;;;;;27.07;18.00;;;;;;;;;;4935324;29;20310;-73
2022/03/26 01:08:25;;;;;;;25.37;17.60;;;;;;;;;;4923433;29;20243;-72
2022/03/26 01:10:50;;;;;;;27.13;18.47;;;;;;;;;;4942318;29;20219;-72
2022/03/26 01:13:18;;;;;;;28.30;18.53;;;;;;;;;;4941614;28;20609;-70
2022/03/26 01:15:43;;;;;;;30.37;18.53;;;;;;;;;;4945611;28;20278;-71
2022/03/26 01:18:09;;;;;;;30.80;18.50;;;;;;;;;;4925151;29;20725;-71
2022/03/26 01:20:37;;;;;;;25.50;18.30;;;;;;;;;;4941768;29;20246;-72
2022/03/26 01:23:03;;;;;;;29.80;19.33;;;;;;;;;;4936738;29;20262;-73
2022/03/26 01:25:28;;;;;;;33.93;21.10;;;;;;;;;;4934123;29;20254;-71
2022/03/26 01:27:56;;;;;;;32.43;20.90;;;;;;;;;;4937921;29;20314;-71
2022/03/26 01:30:27;;;;;;;35.23;21.10;;;;;;;;;;4947867;29;20532;-71
2022/03/26 01:32:53;;;;;;;28.60;21.10;;;;;;;;;;4937499;29;20235;-71
2022/03/26 01:35:20;;;;;;;29.17;18.83;;;;;;;;;;4944193;29;20740;-72
2022/03/26 01:37:48;;;;;;;26.07;18.87;;;;;;;;;;4951007;29;20219;-72
2022/03/26 01:40:16;;;;;;;26.47;19.03;;;;;;;;;;4944884;29;20598;-72
2022/03/26 01:42:42;;;;;;;28.73;20.03;;;;;;;;;;4942112;29;20234;-72
2022/03/26 01:45:15;;;;;;;29.57;20.27;;;;;;;;;;4944190;28;20211;-72
2022/03/26 01:47:42;;;;;;;32.27;22.27;;;;;;;;;;4922884;29;20275;-71
2022/03/26 01:50:08;;;;;;;35.47;21.03;;;;;;;;;;4938249;29;20333;-70
2022/03/26 01:52:33;;;;;;;35.70;21.97;;;;;;;;;;4935870;29;20301;-72
2022/03/26 01:54:59;;;;;;;33.23;21.07;;;;;;;;;;4937052;29;20635;-72
2022/03/26 01:57:25;;;;;;;34.10;22.00;;;;;;;;;;4921274;29;20225;-72
2022/03/26 01:59:50;;;;;;;33.60;21.50;;;;;;;;;;4921844;29;20231;-72
2022/03/26 02:02:23;;;;;;;34.83;21.70;;;;;;;;;;4944511;29;20296;-71
2022/03/26 02:04:54;;;;;;;33.97;21.57;;;;;;;;;;4926302;29;20234;-71
2022/03/26 02:07:19;;;;;;;34.67;21.93;;;;;;;;;;4928950;29;20652;-71
2022/03/26 02:09:48;;;;;;;36.27;21.77;;;;;;;;;;4930090;29;20225;-71
2022/03/26 02:12:30;;;;;;;33.80;21.67;;;;;;;;;;4944013;29;20624;-71
2022/03/26 02:14:56;;;;;;;33.63;20.53;;;;;;;;;;4918124;29;20375;-71
2022/03/26 02:17:24;;;;;;;31.60;21.67;;;;;;;;;;4928583;29;20239;-71
2022/03/26 02:19:59;;;;;;;32.50;20.40;;;;;;;;;;4935012;29;20278;-71
2022/03/26 02:22:25;;;;;;;31.80;22.07;;;;;;;;;;4903904;29;20227;-72
2022/03/26 02:24:51;;;;;;;34.03;23.10;;;;;;;;;;4933963;29;20725;-71
2022/03/26 02:27:16;;;;;;;35.73;23.00;;;;;;;;;;4947041;29;20218;-72
2022/03/26 02:29:42;;;;;;;34.50;23.30;;;;;;;;;;4952575;29;20230;-72
2022/03/26 02:32:10;;;;;;;38.23;23.70;;;;;;;;;;4945087;28;20231;-72
2022/03/26 02:34:35;;;;;;;31.27;22.77;;;;;;;;;;4926328;29;20255;-72
2022/03/26 02:37:03;;;;;;;37.57;23.07;;;;;;;;;;4951343;28;20227;-72
2022/03/26 02:39:28;;;;;;;37.03;22.37;;;;;;;;;;4932158;29;20249;-71
2022/03/26 02:42:01;;;;;;;34.57;22.73;;;;;;;;;;4943493;29;20227;-72
2022/03/26 02:44:29;;;;;;;36.33;22.77;;;;;;;;;;4933602;29;20231;-72
2022/03/26 02:46:55;;;;;;;35.93;22.80;;;;;;;;;;4936371;29;20227;-72
2022/03/26 02:49:20;;;;;;;32.77;22.50;;;;;;;;;;4922392;29;20233;-73
2022/03/26 02:51:48;;;;;;;37.10;23.43;;;;;;;;;;4926346;29;20231;-71
2022/03/26 02:54:19;;;;;;;34.90;22.67;;;;;;;;;;4941129;29;20223;-72
2022/03/26 02:56:53;;;;;;;33.33;22.30;;;;;;;;;;4946779;28;20661;-71
2022/03/26 02:59:18;;;;;;;36.30;23.13;;;;;;;;;;4921573;29;20242;-71
2022/03/26 03:01:49;;;;;;;40.63;24.20;;;;;;;;;;4953267;28;20235;-72
2022/03/26 03:04:15;;;;;;;38.53;25.47;;;;;;;;;;4944652;29;20211;-72
2022/03/26 03:06:43;;;;;;;35.67;22.53;;;;;;;;;;4938868;29;20219;-72
2022/03/26 03:09:11;;;;;;;39.00;23.63;;;;;;;;;;4925964;29;20675;-72
2022/03/26 03:11:39;;;;;;;35.90;23.77;;;;;;;;;;4937369;28;20218;-71
2022/03/26 03:14:07;;;;;;;37.43;24.27;;;;;;;;;;4933465;29;20612;-72
2022/03/26 03:16:36;;;;;;;38.07;23.73;;;;;;;;;;4948836;28;20238;-72
2022/03/26 03:19:04;;;;;;;39.70;24.03;;;;;;;;;;4935800;29;20306;-72
2022/03/26 03:21:32;;;;;;;33.60;22.60;;;;;;;;;;4936327;28;20227;-71
2022/03/26 03:24:00;;;;;;;36.40;23.47;;;;;;;;;;4933738;29;20230;-71
2022/03/26 03:26:25;;;;;;;37.97;22.87;;;;;;;;;;4924409;29;20223;-71
2022/03/26 03:28:51;;;;;;;41.37;24.97;;;;;;;;;;4923174;29;20274;-71
2022/03/26 03:31:19;;;;;;;45.80;24.90;;;;;;;;;;4932910;29;20423;-70
2022/03/26 03:33:46;;;;;;;39.53;24.67;;;;;;;;;;4923075;29;20788;-71
2022/03/26 03:36:12;;;;;;;41.97;25.43;;;;;;;;;;4922213;29;20240;-72
2022/03/26 03:38:37;;;;;;;40.47;24.90;;;;;;;;;;4947097;29;20596;-70
2022/03/26 03:41:03;;;;;;;44.27;25.37;;;;;;;;;;4932901;29;20302;-72
2022/03/26 03:43:28;;;;;;;48.27;28.40;;;;;;;;;;4924909;29;20303;-73
2022/03/26 03:45:56;;;;;;;50.43;29.60;;;;;;;;;;4926030;29;20226;-70
2022/03/26 03:48:24;;;;;;;49.37;29.13;;;;;;;;;;4940846;29;20234;-71
2022/03/26 03:50:49;;;;;;;50.80;29.27;;;;;;;;;;4932801;29;20767;-71
2022/03/26 03:53:15;;;;;;;43.10;28.00;;;;;;;;;;4924318;29;20341;-71
2022/03/26 03:55:40;;;;;;;49.50;27.97;;;;;;;;;;4925385;29;20721;-71
2022/03/26 03:58:08;;;;;;;52.27;29.50;;;;;;;;;;4942357;29;20231;-70
2022/03/26 04:00:41;;;;;;;49.67;29.30;;;;;;;;;;4921837;29;20253;-71
2022/03/26 04:03:10;;;;;;;45.07;28.53;;;;;;;;;;4939266;29;20228;-71
2022/03/26 04:05:35;;;;;;;46.23;28.03;;;;;;;;;;4938698;29;20218;-71
2022/03/26 04:08:01;;;;;;;43.20;26.00;;;;;;;;;;4947241;28;20233;-71
2022/03/26 04:10:26;;;;;;;45.17;27.30;;;;;;;;;;4922739;29;20218;-72
2022/03/26 04:12:54;;;;;;;39.90;25.17;;;;;;;;;;4943009;29;20232;-71
2022/03/26 04:15:20;;;;;;;41.40;26.27;;;;;;;;;;4940718;28;20322;-72
2022/03/26 04:17:47;;;;;;;44.07;26.47;;;;;;;;;;4944041;29;20242;-71
2022/03/26 04:20:13;;;;;;;41.70;26.00;;;;;;;;;;4934403;29;20294;-71
2022/03/26 04:22:43;;;;;;;42.40;26.60;;;;;;;;;;4942581;28;20238;-70
2022/03/26 04:25:09;;;;;;;43.63;25.80;;;;;;;;;;4922948;28;20229;-71
2022/03/26 04:27:35;;;;;;;48.67;28.30;;;;;;;;;;4947040;29;20279;-72
2022/03/26 04:30:04;;;;;;;43.57;25.93;;;;;;;;;;4946266;28;20302;-71
2022/03/26 04:32:32;;;;;;;42.50;26.27;;;;;;;;;;4931075;29;20294;-71
2022/03/26 04:34:57;;;;;;;38.97;24.83;;;;;;;;;;4927106;29;20642;-71
2022/03/26 04:37:25;;;;;;;41.43;26.50;;;;;;;;;;4936839;29;20219;-72
2022/03/26 04:39:50;;;;;;;44.63;26.90;;;;;;;;;;4926945;29;20655;-71
2022/03/26 04:42:16;;;;;;;47.50;28.03;;;;;;;;;;4922869;29;20231;-70
2022/03/26 04:44:41;;;;;;;47.20;27.07;;;;;;;;;;4942338;29;20605;-71
2022/03/26 04:47:07;;;;;;;54.03;28.90;;;;;;;;;;4926863;29;20231;-70
2022/03/26 04:49:35;;;;;;;57.10;30.40;;;;;;;;;;4932269;29;20226;-72
2022/03/26 04:52:00;;;;;;;48.37;28.77;;;;;;;;;;4929391;29;20236;-72
2022/03/26 04:54:27;;;;;;;54.43;29.53;;;;;;;;;;4937680;28;20802;-71
2022/03/26 04:56:52;;;;;;;50.57;30.67;;;;;;;;;;4916789;29;20713;-72
2022/03/26 04:59:18;;;;;;;48.47;29.67;;;;;;;;;;4935935;28;20232;-71
2022/03/26 05:01:44;;;;;;;53.80;29.80;;;;;;;;;;4943098;28;20223;-73
2022/03/26 05:04:11;;;;;;;50.07;30.17;;;;;;;;;;4936882;28;20229;-71
2022/03/26 05:06:39;;;;;;;45.23;27.83;;;;;;;;;;4929783;29;20732;-70
2022/03/26 05:09:07;;;;;;;49.23;30.07;;;;;;;;;;4929875;29;20223;-71
2022/03/26 05:11:33;;;;;;;48.90;30.07;;;;;;;;;;4942584;28;20278;-72
2022/03/26 05:13:59;;;;;;;50.80;30.20;;;;;;;;;;4933750;29;20279;-73
2022/03/26 05:16:24;;;;;;;50.23;30.73;;;;;;;;;;4953668;29;20231;-74
2022/03/26 05:18:50;;;;;;;57.27;32.20;;;;;;;;;;4935765;29;20230;-72
2022/03/26 05:21:17;;;;;;;58.40;31.63;;;;;;;;;;4948369;29;20227;-72
2022/03/26 05:23:45;;;;;;;50.33;30.87;;;;;;;;;;4959082;28;20234;-71
2022/03/26 05:26:13;;;;;;;50.90;30.27;;;;;;;;;;4944789;29;20251;-72
2022/03/26 05:28:38;;;;;;;49.97;30.63;;;;;;;;;;4947123;29;20263;-71
2022/03/26 05:31:07;;;;;;;54.00;31.90;;;;;;;;;;4925589;28;20241;-72
2022/03/26 05:33:37;;;;;;;59.57;32.13;;;;;;;;;;4944012;28;20227;-71
2022/03/26 05:36:05;;;;;;;49.87;30.23;;;;;;;;;;4942003;28;20243;-72
2022/03/26 05:38:31;;;;;;;48.10;30.77;;;;;;;;;;4960008;28;20231;-72
2022/03/26 05:40:56;;;;;;;48.70;28.83;;;;;;;;;;4959148;29;20234;-73
2022/03/26 05:43:23;;;;;;;47.93;28.90;;;;;;;;;;4950953;29;20235;-71
2022/03/26 05:45:50;;;;;;;51.27;29.50;;;;;;;;;;4938215;29;20227;-72
2022/03/26 05:48:16;;;;;;;49.27;28.73;;;;;;;;;;4928014;29;20224;-72
2022/03/26 05:50:42;;;;;;;52.83;31.13;;;;;;;;;;4963880;28;20223;-71
2022/03/26 05:53:10;;;;;;;52.27;30.57;;;;;;;;;;4955460;28;20326;-71
2022/03/26 05:55:35;;;;;;;50.33;30.87;;;;;;;;;;4944618;29;20254;-71
2022/03/26 05:58:01;;;;;;;67.50;36.77;;;;;;;;;;4947072;29;20239;-72
2022/03/26 06:00:27;;;;;;;68.57;38.73;;;;;;;;;;4947873;29;20301;-73
2022/03/26 06:02:52;;;;;;;81.10;40.60;;;;;;;;;;4960925;29;20289;-71
2022/03/26 06:05:22;;;;;;;82.00;42.87;;;;;;;;;;4937062;28;20329;-71
2022/03/26 06:07:48;;;;;;;77.87;42.87;;;;;;;;;;4923800;29;20223;-71
2022/03/26 06:10:13;;;;;;;83.30;45.30;;;;;;;;;;4936165;29;20227;-71
2022/03/26 06:12:41;;;;;;;86.57;44.00;;;;;;;;;;4951238;28;20231;-71
2022/03/26 06:15:08;;;;;;;83.17;44.73;;;;;;;;;;4929914;29;20721;-72
2022/03/26 06:17:33;;;;;;;87.37;46.70;;;;;;;;;;4945397;28;20238;-72
2022/03/26 06:19:59;;;;;;;88.40;48.27;;;;;;;;;;4927991;29;20219;-73
2022/03/26 06:22:24;;;;;;;87.10;49.20;;;;;;;;;;4928556;29;20233;-72
2022/03/26 06:24:53;;;;;;;92.70;48.83;;;;;;;;;;4935871;28;20224;-73
2022/03/26 06:27:19;;;;;;;85.40;48.10;;;;;;;;;;4943836;28;20274;-72
2022/03/26 06:29:49;;;;;;;84.73;49.23;;;;;;;;;;4945148;28;20227;-72
2022/03/26 06:32:15;;;;;;;73.30;44.47;;;;;;;;;;4944028;29;20306;-73
2022/03/26 06:34:42;;;;;;;74.83;45.37;;;;;;;;;;4947473;29;20215;-72
2022/03/26 06:37:08;;;;;;;80.83;45.07;;;;;;;;;;4923232;29;20245;-72
2022/03/26 06:39:36;;;;;;;73.03;44.57;;;;;;;;;;4948431;29;20856;-71
2022/03/26 06:42:04;;;;;;;70.93;41.87;;;;;;;;;;4920852;29;20609;-72
2022/03/26 06:44:29;;;;;;;68.60;40.80;;;;;;;;;;4931595;29;20218;-73
2022/03/26 06:46:55;;;;;;;65.43;41.23;;;;;;;;;;4925084;29;20222;-73
2022/03/26 06:49:20;;;;;;;69.93;42.83;;;;;;;;;;4925416;29;20771;-72
2022/03/26 06:51:46;;;;;;;66.43;42.73;;;;;;;;;;4926206;28;20726;-71
2022/03/26 06:54:15;;;;;;;75.40;44.33;;;;;;;;;;4949114;29;20370;-73
2022/03/26 06:56:41;;;;;;;71.27;44.23;;;;;;;;;;4924376;29;20289;-72
2022/03/26 06:59:06;;;;;;;73.43;46.20;;;;;;;;;;4924027;29;20310;-72
2022/03/26 07:01:34;;;;;;;82.17;47.33;;;;;;;;;;4938327;28;20223;-72
2022/03/26 07:03:59;;;;;;;75.07;46.90;;;;;;;;;;4931830;29;20219;-73
2022/03/26 07:06:27;;;;;;;84.97;50.90;;;;;;;;;;4926724;29;20274;-72
2022/03/26 07:08:53;;;;;;;82.00;50.67;;;;;;;;;;4933675;29;20215;-71
2022/03/26 07:11:21;;;;;;;81.53;51.33;;;;;;;;;;4926892;29;20227;-72
2022/03/26 07:13:47;;;;;;;90.10;54.43;;;;;;;;;;4922011;29;20701;-72
2022/03/26 07:16:15;;;;;;;89.07;56.40;;;;;;;;;;4925408;29;20231;-72
2022/03/26 07:18:41;;;;;;;94.13;54.20;;;;;;;;;;4932442;29;20347;-73
2022/03/26 07:21:08;;;;;;;82.43;54.43;;;;;;;;;;4940067;29;20219;-72
2022/03/26 07:23:38;;;;;;;85.40;53.53;;;;;;;;;;4937637;28;20251;-72
2022/03/26 07:26:04;;;;;;;79.63;51.73;;;;;;;;;;4944580;28;20230;-74
2022/03/26 07:28:32;;;;;;;79.23;50.60;;;;;;;;;;4951034;29;20219;-73
2022/03/26 07:30:57;;;;;;;76.23;49.90;;;;;;;;;;4950840;29;20211;-76
2022/03/26 07:33:23;;;;;;;74.90;49.23;;;;;;;;;;4942863;29;20226;-73
2022/03/26 07:35:50;;;;;;;71.23;48.53;;;;;;;;;;4924710;29;20273;-73
2022/03/26 07:38:16;;;;;;;70.50;47.83;;;;;;;;;;4936526;29;20223;-72
2022/03/26 07:40:49;;;;;;;63.07;44.73;;;;;;;;;;4923625;29;20291;-72
2022/03/26 07:45:56;;;;;;;68.40;46.33;;;;;;;;;;4988126;28;20238;-75
2022/03/26 07:48:21;;;;;;;66.60;45.83;;;;;;;;;;5013147;28;20205;-74
2022/03/26 07:50:49;;;;;;;65.80;45.10;;;;;;;;;;4969642;28;20291;-76
2022/03/26 07:53:17;;;;;;;61.77;42.67;;;;;;;;;;5002518;28;20222;-75
2022/03/26 07:55:47;;;;;;;67.13;43.67;;;;;;;;;;4977902;28;20224;-76
2022/03/26 07:58:13;;;;;;;63.07;43.63;;;;;;;;;;4992855;28;20224;-76
2022/03/26 08:00:41;;;;;;;60.23;42.93;;;;;;;;;;4996930;28;20706;-75
2022/03/26 08:03:08;;;;;;;59.77;42.60;;;;;;;;;;4990517;28;20230;-77
2022/03/26 08:05:36;;;;;;;62.67;42.67;;;;;;;;;;4992884;28;20225;-75
2022/03/26 08:08:01;;;;;;;57.67;40.57;;;;;;;;;;4997425;28;20232;-75
2022/03/26 08:10:27;;;;;;;58.03;41.47;;;;;;;;;;4986161;28;20212;-76
2022/03/26 08:12:56;;;;;;;55.87;41.50;;;;;;;;;;4991664;28;20777;-76
2022/03/26 08:15:22;;;;;;;51.73;38.60;;;;;;;;;;4975109;28;20228;-77
2022/03/26 08:17:47;;;;;;;48.27;35.70;;;;;;;;;;4967762;28;20300;-77
2022/03/26 08:20:13;;;;;;;50.03;34.80;;;;;;;;;;4996761;28;20840;-75
2022/03/26 08:22:59;;;;;;;50.10;35.03;;;;;;;;;;4999778;28;20227;-77
2022/03/26 08:28:11;;;;;;;47.07;31.93;;;;;;;;;;5004638;28;20296;-77
2022/03/26 08:30:42;;;;;;;42.03;30.20;;;;;;;;;;5009436;28;21347;-76
2022/03/26 08:33:10;;;;;;;43.53;31.87;;;;;;;;;;4971653;28;20221;-76
2022/03/26 08:35:39;;;;;;;41.47;30.43;;;;;;;;;;5007060;28;20229;-76
2022/03/26 08:38:05;;;;;;;41.67;31.33;;;;;;;;;;5009517;28;20228;-77
2022/03/26 08:40:33;;;;;;;40.83;29.77;;;;;;;;;;4987698;28;20225;-76
2022/03/26 08:42:59;;;;;;;32.80;24.50;;;;;;;;;;4968441;28;20230;-76
2022/03/26 08:45:29;;;;;;;39.53;28.47;;;;;;;;;;5010322;28;20695;-77
2022/03/26 08:47:55;;;;;;;37.97;27.63;;;;;;;;;;4977631;28;20295;-77
2022/03/26 08:50:24;;;;;;;38.37;29.00;;;;;;;;;;4986540;28;20299;-76
2022/03/26 08:52:49;;;;;;;37.63;27.70;;;;;;;;;;4988890;28;20313;-77
2022/03/26 08:55:15;;;;;;;39.40;27.37;;;;;;;;;;4992912;28;20974;-75
2022/03/26 08:57:41;;;;;;;34.00;26.13;;;;;;;;;;5024463;28;20733;-75
2022/03/26 09:00:13;;;;;;;34.57;24.93;;;;;;;;;;5013124;28;20312;-75
2022/03/26 09:02:39;;;;;;;36.87;25.87;;;;;;;;;;5008550;28;20235;-76
2022/03/26 09:05:06;;;;;;;37.73;27.47;;;;;;;;;;4976632;28;20225;-75
2022/03/26 09:07:32;;;;;;;31.43;24.17;;;;;;;;;;4989854;28;20235;-73
2022/03/26 09:09:58;;;;;;;28.37;22.43;;;;;;;;;;4968392;28;20322;-74
2022/03/26 09:12:23;;;;;;;27.83;22.63;;;;;;;;;;4980436;28;20267;-76
2022/03/26 09:14:49;;;;;;;30.90;22.77;;;;;;;;;;5010670;28;20224;-73
2022/03/26 09:17:16;;;;;;;30.20;23.03;;;;;;;;;;5000502;28;20217;-73
2022/03/26 09:19:42;;;;;;;33.50;23.90;;;;;;;;;;4984946;28;20222;-72
2022/03/26 09:22:08;;;;;;;33.20;24.57;;;;;;;;;;5012992;28;20703;-73
2022/03/26 09:24:33;;;;;;;30.83;23.97;;;;;;;;;;4994687;28;20228;-73
2022/03/26 09:27:01;;;;;;;30.60;22.73;;;;;;;;;;5004137;28;20217;-74
2022/03/26 09:29:29;;;;;;;29.47;21.53;;;;;;;;;;5001406;28;20225;-73
2022/03/26 09:31:57;;;;;;;26.13;21.23;;;;;;;;;;5003867;28;20228;-72
2022/03/26 09:34:22;;;;;;;26.37;20.67;;;;;;;;;;4986612;28;20229;-73
2022/03/26 09:36:48;;;;;;;30.20;21.87;;;;;;;;;;5005061;28;20235;-72
2022/03/26 09:39:22;;;;;;;28.17;21.70;;;;;;;;;;5006299;28;20224;-73
2022/03/26 09:41:48;;;;;;;29.38;21.88;;;;;;;;;;4969527;23;20235;-73
2022/03/26 09:44:13;;;;;;;26.23;20.70;;;;;;;;;;4983959;28;20222;-72
2022/03/26 09:46:39;;;;;;;19.13;15.90;;;;;;;;;;4967013;28;20233;-73
2022/03/26 09:49:04;;;;;;;18.92;15.13;;;;;;;;;;4938933;28;20229;-73
2022/03/26 09:51:31;;;;;;;20.13;14.82;;;;;;;;;;4951452;28;20280;-73
2022/03/26 09:54:15;;;;;;;23.55;16.30;;;;;;;;;;4968259;28;20234;-73
2022/03/26 09:56:44;;;;;;;18.53;16.23;;;;;;;;;;4987241;28;20225;-74
2022/03/26 09:59:21;;;;;;;20.77;15.88;;;;;;;;;;4951915;28;20300;-75
2022/03/26 10:01:54;;;;;;;19.80;15.50;;;;;;;;;;4958191;28;20620;-74
2022/03/26 10:04:21;;;;;;;21.00;16.15;;;;;;;;;;5000167;28;20260;-73
2022/03/26 10:06:53;;;;;;;22.35;17.35;;;;;;;;;;4988827;28;20244;-75
2022/03/26 10:09:34;;;;;;;20.40;16.58;;;;;;;;;;4966092;28;20233;-73
2022/03/26 10:12:29;;;;;;;19.80;16.08;;;;;;;;;;4975463;28;20324;-73
2022/03/26 10:14:59;;;;;;;21.02;16.70;;;;;;;;;;4973366;28;20222;-73
2022/03/26 10:17:38;;;;;;;18.88;15.77;;;;;;;;;;4953185;28;20244;-74
2022/03/26 10:20:05;;;;;;;17.85;15.07;;;;;;;;;;4983434;28;20742;-74
2022/03/26 10:22:40;;;;;;;20.27;16.20;;;;;;;;;;4979816;28;20233;-73
2022/03/26 10:25:15;;;;;;;18.00;15.50;;;;;;;;;;4986191;28;20229;-74
2022/03/26 10:27:51;;;;;;;20.13;15.70;;;;;;;;;;4998711;28;20225;-73
2022/03/26 10:33:22;;;;;;;18.27;14.90;;;;;;;;;;4966859;28;20214;-73
2022/03/26 10:35:58;;;;;;;19.40;15.73;;;;;;;;;;4948263;28;20318;-75
2022/03/26 10:38:33;;;;;;;19.67;15.23;;;;;;;;;;4969223;28;20300;-75
2022/03/26 10:41:03;;;;;;;21.20;15.95;;;;;;;;;;4969598;28;20257;-73
2022/03/26 10:43:42;;;;;;;23.08;16.40;;;;;;;;;;4990435;28;20217;-73
2022/03/26 10:46:11;;;;;;;18.13;15.40;;;;;;;;;;4991136;28;20328;-73
2022/03/26 10:48:39;;;;;;;21.85;15.48;;;;;;;;;;4963986;28;20234;-74
2022/03/26 10:51:26;;;;;;;19.35;15.68;;;;;;;;;;4982848;28;20309;-73
2022/03/26 10:53:54;;;;;;;26.45;16.58;;;;;;;;;;4982005;28;20231;-73
2022/03/26 10:56:20;;;;;;;18.38;15.75;;;;;;;;;;4973157;28;20230;-74
2022/03/26 10:59:00;;;;;;;18.20;15.38;;;;;;;;;;4976343;28;20218;-74
2022/03/26 11:01:30;;;;;;;19.00;16.20;;;;;;;;;;4944806;28;20573;-73
2022/03/26 11:04:06;;;;;;;21.35;15.65;;;;;;;;;;4979053;28;20772;-74
2022/03/26 11:06:43;;;;;;;;;;;;;;;;;;;;;
2022/03/26 11:09:09;;;;;;;20.80;17.08;;;;;;;;;;4967419;28;20265;-73
2022/03/26 11:11:39;;;;;;;19.65;16.00;;;;;;;;;;5003284;28;20257;-74
2022/03/26 11:14:16;;;;;;;19.33;14.93;;;;;;;;;;4980678;28;20222;-73
2022/03/26 11:16:54;;;;;;;16.73;14.07;;;;;;;;;;4985933;28;20596;-73
2022/03/26 11:19:26;;;;;;;17.15;13.45;;;;;;;;;;4999443;28;20699;-73
2022/03/26 11:22:06;;;;;;;15.15;12.48;;;;;;;;;;5004165;28;20593;-76
2022/03/26 11:24:53;;;;;;;16.85;12.10;;;;;;;;;;4987537;28;20225;-73
2022/03/26 11:27:47;;;;;;;16.05;12.95;;;;;;;;;;4982878;28;20209;-73
2022/03/26 11:30:29;;;;;;;16.73;13.50;;;;;;;;;;4989129;28;20244;-75
2022/03/26 11:32:57;;;;;;;16.42;13.05;;;;;;;;;;4951157;28;20220;-74
2022/03/26 11:35:22;;;;;;;14.50;13.05;;;;;;;;;;4997979;28;20237;-76
2022/03/26 11:37:56;;;;;;;17.20;12.65;;;;;;;;;;4989967;28;20729;-76
2022/03/26 11:40:43;;;;;;;15.15;12.68;;;;;;;;;;4988028;28;20252;-76
2022/03/26 11:43:17;;;;;;;17.50;12.98;;;;;;;;;;4981157;28;20655;-74
2022/03/26 11:51:35;;;;;;;13.77;11.52;;;;;;;;;;4982940;28;20241;-77
2022/03/26 11:54:13;;;;;;;14.88;11.60;;;;;;;;;;4973081;28;20891;-76
2022/03/26 11:56:38;;;;;;;12.25;10.50;;;;;;;;;;4974505;28;20226;-77
2022/03/26 11:59:15;;;;;;;14.43;11.02;;;;;;;;;;4976055;28;20285;-77
2022/03/26 12:01:47;;;;;;;12.65;10.43;;;;;;;;;;4999713;28;20228;-76
2022/03/26 12:04:19;;;;;;;11.80;10.18;;;;;;;;;;5000175;28;20217;-76
2022/03/26 12:06:57;;;;;;;12.20;9.98;;;;;;;;;;4978792;28;20217;-77
2022/03/26 12:09:36;;;;;;;11.30;9.75;;;;;;;;;;4970077;28;20251;-77
2022/03/26 12:12:05;;;;;;;15.00;10.82;;;;;;;;;;4992166;28;20237;-77
2022/03/26 12:14:37;;;;;;;13.40;9.50;;;;;;;;;;4993997;28;20722;-77
2022/03/26 12:17:03;;;;;;;13.40;9.25;;;;;;;;;;4995363;28;20707;-77
2022/03/26 12:19:50;;;;;;;11.45;8.88;;;;;;;;;;4991177;28;20229;-76
2022/03/26 12:22:17;;;;;;;11.50;9.30;;;;;;;;;;4999792;28;20242;-77
2022/03/26 12:24:43;;;;;;;12.80;8.85;;;;;;;;;;5002010;28;20245;-77
2022/03/26 12:27:13;;;;;;;10.18;8.70;;;;;;;;;;5004072;28;20225;-75
2022/03/26 12:29:39;;;;;;;11.00;8.25;;;;;;;;;;4970564;28;20229;-77
2022/03/26 12:32:10;;;;;;;8.65;7.28;;;;;;;;;;4941093;28;20254;-76
2022/03/26 12:35:11;;;;;;;8.55;7.20;;;;;;;;;;4955732;28;20218;-76
2022/03/26 12:37:36;;;;;;;9.13;7.10;;;;;;;;;;4933055;29;20251;-76
2022/03/26 12:40:05;;;;;;;7.53;6.70;;;;;;;;;;4970326;28;20316;-75
2022/03/26 12:42:30;;;;;;;8.88;6.70;;;;;;;;;;4960989;28;20229;-76
2022/03/26 12:44:56;;;;;;;7.22;6.53;;;;;;;;;;4958452;28;20341;-76
2022/03/26 12:47:23;;;;;;;7.47;6.40;;;;;;;;;;4967351;28;20356;-77
2022/03/26 12:49:57;;;;;;;7.75;6.30;;;;;;;;;;4949885;28;20218;-75
2022/03/26 12:52:26;;;;;;;7.28;6.28;;;;;;;;;;4971187;28;20235;-77
2022/03/26 12:54:59;;;;;;;8.57;6.18;;;;;;;;;;4967558;28;20685;-76
2022/03/26 12:57:25;;;;;;;7.07;6.20;;;;;;;;;;4967000;28;20227;-77
2022/03/26 12:59:54;;;;;;;8.20;6.13;;;;;;;;;;4968815;28;20217;-76
2022/03/26 13:02:45;;;;;;;10.50;6.25;;;;;;;;;;4964651;28;20364;-76
2022/03/26 13:05:13;;;;;;;6.78;5.57;;;;;;;;;;4966479;28;20726;-76
2022/03/26 13:07:41;;;;;;;7.63;5.80;;;;;;;;;;4959725;28;20246;-77
2022/03/26 13:10:07;;;;;;;8.10;5.38;;;;;;;;;;4959346;28;20286;-75
2022/03/26 13:12:37;;;;;;;5.22;4.70;;;;;;;;;;4971268;28;20233;-76
2022/03/26 13:15:03;;;;;;;7.05;5.65;;;;;;;;;;4975182;28;20238;-77
2022/03/26 13:17:29;;;;;;;6.97;5.18;;;;;;;;;;4982004;28;20238;-74
2022/03/26 13:19:58;;;;;;;7.20;4.93;;;;;;;;;;4998245;28;20747;-76
2022/03/26 13:22:25;;;;;;;5.72;5.13;;;;;;;;;;4996665;28;20316;-76
2022/03/26 13:24:52;;;;;;;6.20;4.70;;;;;;;;;;4976627;28;20565;-77
2022/03/26 13:27:18;;;;;;;5.93;5.10;;;;;;;;;;4984981;28;20222;-74
2022/03/26 13:29:43;;;;;;;6.43;5.35;;;;;;;;;;4976628;28;20268;-76
2022/03/26 13:32:13;;;;;;;7.50;5.28;;;;;;;;;;4981336;28;20223;-76
2022/03/26 13:34:41;;;;;;;6.18;5.05;;;;;;;;;;4984353;28;20233;-76
2022/03/26 13:37:17;;;;;;;7.60;5.00;;;;;;;;;;4974082;28;20229;-76
2022/03/26 13:39:53;;;;;;;7.38;6.10;;;;;;;;;;4982189;28;20645;-76
2022/03/26 13:42:21;;;;;;;8.88;5.25;;;;;;;;;;4978727;28;20690;-78
2022/03/26 13:44:50;;;;;;;6.90;5.47;;;;;;;;;;4962449;28;20295;-76
2022/03/26 13:47:19;;;;;;;7.80;5.28;;;;;;;;;;4967771;28;20285;-76
2022/03/26 13:49:45;;;;;;;7.00;5.93;;;;;;;;;;4980429;28;20953;-76
2022/03/26 13:52:26;;;;;;;9.63;6.28;;;;;;;;;;4925613;28;20246;-77
2022/03/26 13:54:54;;;;;;;6.57;5.60;;;;;;;;;;4970008;28;20591;-77
2022/03/26 13:57:33;;;;;;;7.95;5.93;;;;;;;;;;4958570;28;20227;-77
2022/03/26 14:00:11;;;;;;;7.35;5.57;;;;;;;;;;4967718;28;20240;-76
2022/03/26 14:02:52;;;;;;;7.53;5.60;;;;;;;;;;4956831;28;20229;-77
2022/03/26 14:05:26;;;;;;;7.13;5.70;;;;;;;;;;4981598;28;20228;-76
2022/03/26 14:11:14;;;;;;;8.00;5.22;;;;;;;;;;4989747;28;20222;-76
2022/03/26 14:13:55;;;;;;;5.90;5.35;;;;;;;;;;4958084;28;20222;-77
2022/03/26 14:16:20;;;;;;;7.22;5.15;;;;;;;;;;4997489;28;20260;-77
2022/03/26 14:18:49;;;;;;;6.18;5.45;;;;;;;;;;4978613;28;20222;-76
2022/03/26 14:21:17;;;;;;;6.80;5.95;;;;;;;;;;4971154;28;20310;-78
2022/03/26 14:23:43;;;;;;;7.88;5.53;;;;;;;;;;4953131;28;20242;-76
2022/03/26 14:26:17;;;;;;;6.88;6.18;;;;;;;;;;4988914;28;20244;-77
2022/03/26 14:28:50;;;;;;;7.80;4.97;;;;;;;;;;4961671;28;20242;-79
2022/03/26 14:31:44;;;;;;;4.65;4.05;;;;;;;;;;4982486;28;20226;-77
2022/03/26 14:34:12;;;;;;;6.82;4.43;;;;;;;;;;4977742;28;20626;-77
2022/03/26 14:36:42;;;;;;;4.72;4.22;;;;;;;;;;4975000;28;20298;-76
2022/03/26 14:39:20;;;;;;;6.88;4.38;;;;;;;;;;4968252;28;20230;-74
2022/03/26 14:41:51;;;;;;;5.82;4.40;;;;;;;;;;4958112;28;20214;-78
2022/03/26 14:44:17;;;;;;;5.47;4.82;;;;;;;;;;4969868;28;20368;-77
2022/03/26 14:46:42;;;;;;;5.22;4.72;;;;;;;;;;4951876;28;20231;-76
2022/03/26 14:49:08;;;;;;;6.47;5.03;;;;;;;;;;4956595;28;20773;-77